This is the latest recevied weather packets stored in our database for station/object N4DWK. If no packets are shown the sender has not sent any weather packets the latest 10 day(s).
| Time | Temp. | Humidity | Pressure | Rain* | Wind** | Luminosity | Snow |
|---|---|---|---|---|---|---|---|
| 1777669805 | 21.67° C | 41% | 1011.3 hPa | 0 mm | - | 362 W/m² | - |
| 1777669506 | 21.67° C | 40% | 1011.4 hPa | 0 mm | - | 376 W/m² | - |
| 1777669205 | 21.67° C | 41% | 1011.4 hPa | 0 mm | - | 387 W/m² | - |
| 1777668906 | 21.67° C | 39% | 1011.5 hPa | 0 mm | - | 399 W/m² | - |
| 1777668606 | 22.22° C | 40% | 1011.5 hPa | 0 mm | - | 410 W/m² | - |
| 1777668305 | 22.22° C | 38% | 1011.5 hPa | 0 mm | - | 420 W/m² | - |
| 1777668005 | 21.67° C | 38% | 1011.5 hPa | 0 mm | - | 436 W/m² | - |
| 1777667706 | 21.67° C | 39% | 1011.6 hPa | 0 mm | - | 446 W/m² | - |
| 1777667406 | 21.67° C | 39% | 1011.7 hPa | 0 mm | - | 457 W/m² | - |
| 1777667106 | 21.67° C | 38% | 1011.7 hPa | 0 mm | - | 466 W/m² | - |
| 1777666805 | 22.22° C | 37% | 1011.8 hPa | 0 mm | - | 478 W/m² | - |
| 1777666505 | 22.22° C | 40% | 1011.9 hPa | 0 mm | - | 487 W/m² | - |
| 1777666205 | 21.67° C | 39% | 1012 hPa | 0 mm | - | 492 W/m² | - |
| 1777665905 | 21.67° C | 38% | 1012.1 hPa | 0 mm | - | 506 W/m² | - |
| 1777665605 | 21.67° C | 39% | 1012.3 hPa | 0 mm | - | 522 W/m² | - |
| 1777665305 | 21.67° C | 38% | 1012.3 hPa | 0 mm | - | 533 W/m² | - |
| 1777665005 | 21.11° C | 38% | 1012.4 hPa | 0 mm | - | 536 W/m² | - |
| 1777664705 | 21.11° C | 37% | 1012.5 hPa | 0 mm | - | 522 W/m² | - |
| 1777664406 | 21.11° C | 38% | 1012.6 hPa | 0 mm | - | 561 W/m² | - |
| 1777664105 | 21.11° C | 41% | 1012.5 hPa | 0 mm | - | 564 W/m² | - |
| 1777663805 | 21.11° C | 40% | 1012.5 hPa | 0 mm | - | 517 W/m² | - |
| 1777663506 | 21.11° C | 41% | 1012.8 hPa | 0 mm | - | 582 W/m² | - |
| 1777663206 | 22.22° C | 41% | 1012.9 hPa | 0 mm | - | 591 W/m² | - |
| 1777662906 | 21.11° C | 41% | 1013 hPa | 0 mm | - | 592 W/m² | - |
| 1777662605 | 20.56° C | 43% | 1013 hPa | 0 mm | - | 601 W/m² | - |
* Rain latest hour (hover to see other rain measurements)
** Current wind speed in m/s (hover to see current wind gust speed)